Time;durP1;ratioP1;P1;durP2;ratioP2;P2;SDS_P1;SDS_P2;PMS_P1;PMS_P2;Temp;Humidity;BMP_temperature;BMP_pressure;BME280_temperature;BME280_humidity;BME280_pressure;Samples;Min_cycle;Max_cycle;Signal;HPM_P1;HPM_P2
2024/01/03 00:01:03;;;;;;;2.83;1.30;;;;;;;12.64;92.29;98472.97;5022987;27;98643;-73
2024/01/03 00:03:31;;;;;;;1.30;1.20;;;;;;;12.46;93.00;98474.44;5022930;27;97231;-72
2024/01/03 00:05:59;;;;;;;2.42;2.22;;;;;;;12.37;93.92;98472.50;5013841;27;101123;-73
2024/01/03 00:08:27;;;;;;;2.22;1.27;;;;;;;12.53;93.29;98475.63;5029476;27;98826;-73
2024/01/03 00:10:56;;;;;;;1.15;1.05;;;;;;;12.62;92.74;98474.03;5018968;27;96769;-74
2024/01/03 00:14:02;;;;;;;2.25;1.25;;;;;;;12.53;92.95;98464.19;5020863;27;99370;-75
2024/01/03 00:16:28;;;;;;;0.90;0.90;;;;;;;12.51;93.27;98472.25;5028840;27;98872;-74
2024/01/03 00:18:58;;;;;;;2.67;1.10;;;;;;;12.63;92.86;98473.06;5022603;27;97512;-74
2024/01/03 00:21:26;;;;;;;2.15;1.20;;;;;;;12.47;93.02;98472.63;5026680;27;96850;-73
2024/01/03 00:23:55;;;;;;;2.78;1.30;;;;;;;12.38;94.13;98471.53;5029449;27;96939;-75
2024/01/03 00:26:24;;;;;;;4.78;1.48;;;;;;;12.61;93.25;98469.69;5024905;27;101203;-75
2024/01/03 00:28:51;;;;;;;1.10;1.00;;;;;;;12.70;92.26;98461.03;5021397;27;100535;-75
2024/01/03 00:31:35;;;;;;;0.90;0.80;;;;;;;12.39;94.16;98457.34;5029209;27;96766;-75
2024/01/03 00:34:02;;;;;;;1.95;1.00;;;;;;;12.55;93.62;98459.59;5028038;27;97210;-76
2024/01/03 00:36:29;;;;;;;1.13;1.00;;;;;;;12.85;92.38;98459.81;5028386;27;97724;-74
2024/01/03 00:38:56;;;;;;;3.63;1.10;;;;;;;12.63;93.34;98462.47;5029245;27;99030;-73
2024/01/03 00:41:23;;;;;;;1.38;1.00;;;;;;;12.71;92.48;98452.13;5025100;27;98015;-74
2024/01/03 00:43:50;;;;;;;2.38;0.75;;;;;;;12.86;92.21;98452.69;5024788;27;97262;-75
2024/01/03 00:46:17;;;;;;;1.95;0.98;;;;;;;12.60;93.37;98454.78;5023350;27;98982;-75
2024/01/03 00:48:43;;;;;;;1.13;1.02;;;;;;;12.70;93.05;98456.56;5027511;27;98040;-74
2024/01/03 00:51:10;;;;;;;1.08;0.77;;;;;;;12.57;93.77;98458.53;5026981;27;98476;-73
2024/01/03 00:53:37;;;;;;;1.42;0.90;;;;;;;12.80;92.62;98448.72;5026070;27;97416;-73
2024/01/03 00:56:04;;;;;;;1.08;0.98;;;;;;;12.72;93.07;98448.50;5031125;27;99587;-73
2024/01/03 00:58:33;;;;;;;5.53;0.77;;;;;;;12.72;92.40;98451.16;5026137;27;98743;-75
2024/01/03 01:00:59;;;;;;;6.18;0.95;;;;;;;12.82;92.23;98451.25;5020858;27;96768;-73
2024/01/03 01:03:26;;;;;;;0.95;0.70;;;;;;;12.80;92.31;98450.53;5026059;27;97149;-74
2024/01/03 01:05:53;;;;;;;1.95;0.77;;;;;;;12.61;93.00;98445.84;5024329;27;102206;-71
2024/01/03 01:08:19;;;;;;;2.38;0.82;;;;;;;12.75;92.87;98451.75;5026797;27;99298;-72
2024/01/03 01:10:45;;;;;;;1.10;0.68;;;;;;;12.71;92.60;98449.47;5026628;27;97234;-73
2024/01/03 01:13:12;;;;;;;0.88;0.50;;;;;;;12.66;93.06;98459.59;5029216;27;97093;-70
2024/01/03 01:15:39;;;;;;;0.40;0.40;;;;;;;12.55;93.43;98456.94;5025795;27;101942;-71
2024/01/03 01:18:05;;;;;;;1.17;0.60;;;;;;;12.67;93.21;98462.09;5026317;27;99020;-72
2024/01/03 01:20:32;;;;;;;0.80;0.60;;;;;;;12.62;93.00;98455.50;5020273;27;98024;-72
2024/01/03 01:22:59;;;;;;;0.93;0.60;;;;;;;12.41;93.76;98468.63;5016565;27;96843;-72
2024/01/03 01:25:25;;;;;;;2.58;0.47;;;;;;;12.46;94.41;98457.69;5033007;27;99090;-72
2024/01/03 01:27:52;;;;;;;0.75;0.40;;;;;;;12.45;93.98;98458.66;5021845;27;99210;-72
2024/01/03 01:30:18;;;;;;;0.93;0.38;;;;;;;12.46;93.91;98466.47;5032092;27;97231;-73
2024/01/03 01:32:47;;;;;;;0.75;0.43;;;;;;;12.01;96.26;98473.56;5026630;27;96815;-74
2024/01/03 01:35:14;;;;;;;0.98;0.50;;;;;;;11.65;99.57;98473.69;5021359;27;97679;-70
2024/01/03 01:37:40;;;;;;;1.80;0.30;;;;;;;11.94;98.11;98472.34;5019465;27;101971;-69
2024/01/03 01:40:08;;;;;;;0.40;0.40;;;;;;;12.27;96.55;98484.78;5026678;27;97258;-71
2024/01/03 01:42:34;;;;;;;1.30;0.40;;;;;;;11.99;97.33;98486.06;5029147;27;97529;-70
2024/01/03 01:45:01;;;;;;;0.47;0.25;;;;;;;12.17;96.91;98474.06;5014899;27;100795;-70
2024/01/03 01:47:27;;;;;;;1.30;0.20;;;;;;;12.31;95.51;98479.13;5025053;27;98829;-69
2024/01/03 01:49:55;;;;;;;0.65;0.30;;;;;;;12.19;95.73;98477.44;5029503;27;98131;-71
2024/01/03 01:52:24;;;;;;;3.13;0.40;;;;;;;12.02;96.34;98474.38;5025897;27;97756;-69
2024/01/03 01:54:50;;;;;;;0.40;0.30;;;;;;;11.87;97.24;98481.72;5023282;27;99090;-70
2024/01/03 01:57:18;;;;;;;1.20;0.25;;;;;;;11.74;98.26;98488.91;5020286;27;99205;-70
2024/01/03 01:59:44;;;;;;;0.35;0.25;;;;;;;11.92;97.44;98482.19;5029153;27;97903;-70
2024/01/03 02:02:12;;;;;;;0.52;0.38;;;;;;;12.02;97.09;98484.97;5018919;27;97387;-70
2024/01/03 02:04:39;;;;;;;1.38;0.30;;;;;;;12.18;95.94;98475.75;5024158;27;99458;-70
2024/01/03 02:07:08;;;;;;;0.95;0.38;;;;;;;12.15;95.68;98472.47;5026551;27;98885;-69
2024/01/03 02:09:34;;;;;;;1.38;0.40;;;;;;;12.14;95.68;98471.63;5022070;27;96754;-69
2024/01/03 02:12:00;;;;;;;0.20;0.13;;;;;;;12.04;96.01;98473.31;5024378;27;97566;-69
2024/01/03 02:14:27;;;;;;;0.40;0.30;;;;;;;11.95;96.59;98481.94;5024581;28;99241;-70
2024/01/03 02:16:53;;;;;;;1.95;0.30;;;;;;;11.77;97.44;98470.13;5028738;27;98802;-70
2024/01/03 02:19:20;;;;;;;0.40;0.25;;;;;;;11.85;97.49;98480.97;5030614;27;97328;-70
2024/01/03 02:21:48;;;;;;;0.10;0.10;;;;;;;11.89;97.64;98483.28;5020472;27;98889;-70
2024/01/03 02:24:14;;;;;;;0.57;0.30;;;;;;;11.52;100.00;98485.19;5027170;27;101688;-70
2024/01/03 02:26:41;;;;;;;1.30;0.15;;;;;;;11.57;99.99;98475.09;5018911;27;98131;-70
2024/01/03 02:29:07;;;;;;;1.05;0.38;;;;;;;11.77;98.99;98470.97;5025609;27;96860;-70
2024/01/03 02:31:36;;;;;;;5.88;0.20;;;;;;;11.70;98.98;98479.47;5026248;27;97201;-70
2024/01/03 02:34:02;;;;;;;1.65;0.17;;;;;;;11.82;98.18;98476.75;5021452;27;99304;-70
2024/01/03 02:36:28;;;;;;;0.25;0.10;;;;;;;12.14;96.38;98476.91;5023477;27;99566;-70
2024/01/03 02:39:00;;;;;;;1.00;0.10;;;;;;;12.00;96.73;98477.16;5029326;27;97303;-70
2024/01/03 02:41:26;;;;;;;1.27;0.30;;;;;;;12.09;96.42;98472.94;5023211;27;96868;-70
2024/01/03 02:43:53;;;;;;;0.60;0.15;;;;;;;12.15;95.69;98486.56;5012978;27;97518;-70
2024/01/03 02:46:19;;;;;;;1.17;0.10;;;;;;;12.04;96.52;98488.34;5017708;27;98862;-70
2024/01/03 02:48:46;;;;;;;1.02;0.20;;;;;;;12.05;96.86;98488.25;5023381;27;97372;-69
2024/01/03 02:51:18;;;;;;;1.20;0.20;;;;;;;12.06;97.01;98489.94;5023038;27;97268;-69
2024/01/03 02:53:45;;;;;;;0.63;0.10;;;;;;;11.87;97.51;98487.00;5025594;27;99143;-70
2024/01/03 02:56:12;;;;;;;2.85;0.20;;;;;;;11.71;98.74;98499.66;5023370;27;99648;-70
2024/01/03 02:58:39;;;;;;;0.10;0.10;;;;;;;11.61;100.00;98496.03;5027007;27;97154;-70
2024/01/03 03:01:05;;;;;;;0.50;0.17;;;;;;;12.01;97.69;98494.75;5013390;27;97621;-70
2024/01/03 03:03:32;;;;;;;0.28;0.20;;;;;;;12.00;97.07;98492.22;5016654;27;100107;-71
2024/01/03 03:05:58;;;;;;;2.67;0.32;;;;;;;11.91;97.35;98496.38;5024138;27;99144;-70
2024/01/03 03:08:24;;;;;;;1.10;0.20;;;;;;;11.88;97.73;98494.81;5025446;27;96891;-70
2024/01/03 03:10:51;;;;;;;1.85;0.13;;;;;;;11.98;96.79;98500.25;5025920;27;98452;-71
2024/01/03 03:13:18;;;;;;;0.57;0.25;;;;;;;12.01;96.79;98492.09;5021485;27;101115;-71
2024/01/03 03:15:46;;;;;;;1.48;0.10;;;;;;;12.17;96.47;98495.22;5029367;27;99000;-70
2024/01/03 03:18:13;;;;;;;0.30;0.30;;;;;;;12.30;95.13;98488.03;5022438;27;96769;-70
2024/01/03 03:20:39;;;;;;;0.65;0.20;;;;;;;12.20;95.17;98491.50;5023619;27;97247;-69
2024/01/03 03:23:05;;;;;;;3.88;0.20;;;;;;;12.26;94.88;98489.22;5021821;27;100483;-69
2024/01/03 03:25:32;;;;;;;1.95;0.10;;;;;;;12.07;95.67;98498.72;5021510;27;97500;-70
2024/01/03 03:27:58;;;;;;;0.20;0.20;;;;;;;11.91;96.86;98505.19;5022126;27;96858;-70
2024/01/03 03:30:26;;;;;;;0.88;0.20;;;;;;;12.02;95.60;98491.09;5027810;27;96855;-70
2024/01/03 03:32:52;;;;;;;0.40;0.10;;;;;;;12.18;95.10;98491.63;5021728;27;98931;-70
2024/01/03 03:35:19;;;;;;;1.52;0.20;;;;;;;11.84;95.74;98501.31;5022306;27;98919;-71
2024/01/03 03:37:45;;;;;;;0.00;0.00;;;;;;;11.46;96.12;98490.94;5025876;27;97156;-70
2024/01/03 03:40:12;;;;;;;0.70;0.30;;;;;;;11.44;97.75;98498.13;5029227;27;96801;-70
2024/01/03 03:42:38;;;;;;;1.48;0.32;;;;;;;11.64;95.55;98487.84;5022609;27;101526;-70
2024/01/03 03:45:05;;;;;;;0.40;0.13;;;;;;;11.79;95.13;98506.09;5028495;27;99213;-71
2024/01/03 03:47:33;;;;;;;2.47;0.40;;;;;;;12.13;92.84;98500.88;5024059;27;96657;-71
2024/01/03 03:49:59;;;;;;;0.38;0.20;;;;;;;11.86;93.79;98507.34;5021417;27;96980;-71
2024/01/03 03:52:26;;;;;;;1.50;0.20;;;;;;;12.02;92.89;98507.00;5023941;27;99273;-70
2024/01/03 03:54:52;;;;;;;1.30;0.10;;;;;;;12.24;91.99;98501.75;5024503;27;99150;-71
2024/01/03 03:57:18;;;;;;;2.05;0.30;;;;;;;12.01;92.98;98496.53;5026491;27;97212;-71
2024/01/03 03:59:45;;;;;;;1.58;0.20;;;;;;;12.26;92.04;98493.69;5029631;27;97276;-72
2024/01/03 04:02:11;;;;;;;3.38;0.17;;;;;;;12.26;91.11;98498.97;5026964;27;102448;-71
2024/01/03 04:04:39;;;;;;;1.13;0.10;;;;;;;12.07;91.92;98496.06;5029864;27;98820;-71
2024/01/03 04:07:07;;;;;;;1.65;0.30;;;;;;;12.18;92.16;98501.38;5017257;27;97088;-71
2024/01/03 04:09:33;;;;;;;0.45;0.20;;;;;;;12.05;92.54;98496.19;5028174;27;96931;-69
2024/01/03 04:12:00;;;;;;;1.38;0.10;;;;;;;12.05;92.16;98495.34;5024175;27;99202;-70
2024/01/03 04:14:26;;;;;;;2.85;0.25;;;;;;;11.95;93.17;98492.53;5025013;27;101421;-70
2024/01/03 04:16:53;;;;;;;0.55;0.20;;;;;;;12.04;92.32;98494.50;5022255;27;102027;-70
2024/01/03 04:19:19;;;;;;;0.95;0.20;;;;;;;12.09;92.47;98502.06;5010916;27;97218;-71
2024/01/03 04:21:47;;;;;;;0.68;0.25;;;;;;;12.11;92.40;98498.34;5017657;27;99230;-70
2024/01/03 04:24:13;;;;;;;1.40;0.17;;;;;;;12.12;91.91;98494.75;5020661;27;98061;-72
2024/01/03 04:26:40;;;;;;;0.60;0.20;;;;;;;12.10;91.42;98501.97;5026980;27;97101;-71
2024/01/03 04:29:07;;;;;;;0.82;0.25;;;;;;;12.38;90.22;98495.38;5025681;27;97216;-70
2024/01/03 04:31:34;;;;;;;0.85;0.15;;;;;;;12.43;89.47;98500.28;5027105;27;99436;-70
2024/01/03 04:34:00;;;;;;;1.38;0.30;;;;;;;12.29;89.37;98509.31;5022046;27;98738;-70
2024/01/03 04:36:27;;;;;;;0.95;0.20;;;;;;;12.14;89.79;98515.81;5023770;27;96996;-71
2024/01/03 04:38:55;;;;;;;1.00;0.30;;;;;;;12.04;90.96;98518.31;5025284;27;96977;-70
2024/01/03 04:41:21;;;;;;;2.47;0.40;;;;;;;12.02;91.01;98514.94;5017179;27;100810;-70
2024/01/03 04:43:48;;;;;;;1.35;0.20;;;;;;;12.24;89.85;98522.06;5027143;27;99118;-69
2024/01/03 04:46:14;;;;;;;2.50;0.28;;;;;;;12.14;89.92;98518.47;5020782;27;97047;-69
2024/01/03 04:48:41;;;;;;;1.55;0.30;;;;;;;12.08;89.88;98524.22;5026579;27;97428;-70
2024/01/03 04:51:09;;;;;;;1.40;0.20;;;;;;;12.11;89.71;98518.69;5021487;27;99228;-70
2024/01/03 04:53:35;;;;;;;3.33;0.20;;;;;;;11.96;90.16;98533.94;5015071;27;98961;-69
2024/01/03 04:56:03;;;;;;;0.70;0.30;;;;;;;11.73;90.87;98529.50;5020231;27;98070;-70
2024/01/03 04:58:29;;;;;;;1.65;0.13;;;;;;;11.61;91.88;98526.00;5015398;27;98879;-70
2024/01/03 05:00:56;;;;;;;1.35;0.20;;;;;;;11.52;92.47;98527.50;5022919;27;99361;-69
2024/01/03 05:03:22;;;;;;;1.17;0.20;;;;;;;11.64;91.43;98527.53;5023367;27;99381;-70
2024/01/03 05:05:49;;;;;;;1.50;0.20;;;;;;;12.02;90.12;98533.47;5022425;27;97190;-70
2024/01/03 05:08:15;;;;;;;3.25;0.40;;;;;;;12.04;89.24;98534.19;5028325;27;96792;-70
2024/01/03 05:10:42;;;;;;;2.17;0.40;;;;;;;12.35;87.45;98533.50;5024778;27;99544;-71
2024/01/03 05:13:10;;;;;;;1.40;0.20;;;;;;;12.01;88.49;98537.09;5023050;27;101878;-70
2024/01/03 05:15:36;;;;;;;3.03;0.30;;;;;;;12.05;88.22;98530.59;5024263;27;97354;-70
2024/01/03 05:18:03;;;;;;;3.03;0.40;;;;;;;12.37;87.01;98522.81;5019279;27;99130;-71
2024/01/03 05:20:29;;;;;;;1.60;0.20;;;;;;;12.41;86.32;98531.34;5027488;27;98971;-70
2024/01/03 05:22:56;;;;;;;1.27;0.20;;;;;;;12.23;87.01;98534.47;5022609;27;99656;-71
2024/01/03 05:25:23;;;;;;;5.22;0.47;;;;;;;12.52;85.13;98528.72;5022319;27;97282;-71
2024/01/03 05:27:50;;;;;;;3.22;0.40;;;;;;;12.52;84.26;98536.66;5024106;27;97052;-72
2024/01/03 05:30:18;;;;;;;4.63;0.52;;;;;;;12.42;84.22;98536.53;5026867;27;99073;-70
2024/01/03 05:32:44;;;;;;;1.95;0.45;;;;;;;12.66;83.21;98533.78;5027172;27;98885;-70
2024/01/03 05:35:11;;;;;;;7.72;0.88;;;;;;;12.41;84.26;98545.44;5029921;27;97017;-69
2024/01/03 05:37:37;;;;;;;2.55;0.30;;;;;;;12.38;84.44;98551.84;5024516;27;96993;-70
2024/01/03 05:40:05;;;;;;;4.55;0.50;;;;;;;12.32;83.94;98544.38;5019373;27;99478;-71
2024/01/03 05:42:31;;;;;;;3.92;0.75;;;;;;;12.29;84.18;98551.69;5023994;27;98747;-70
2024/01/03 05:44:57;;;;;;;3.55;0.20;;;;;;;12.08;84.61;98548.88;5022576;27;96960;-71
2024/01/03 05:47:25;;;;;;;5.75;0.55;;;;;;;11.93;85.92;98561.50;5026644;27;97766;-70
2024/01/03 05:49:51;;;;;;;2.90;0.50;;;;;;;11.80;86.00;98546.66;5024157;27;98838;-70
2024/01/03 05:52:18;;;;;;;8.65;0.60;;;;;;;12.02;85.98;98553.78;5023081;27;99220;-70
2024/01/03 05:54:44;;;;;;;4.07;0.70;;;;;;;12.21;84.39;98554.91;5026638;27;97144;-71
2024/01/03 05:57:11;;;;;;;1.67;0.80;;;;;;;12.17;84.35;98548.19;5024636;27;97541;-70
2024/01/03 05:59:40;;;;;;;8.43;0.80;;;;;;;11.98;85.57;98558.47;5015109;27;101425;-70
2024/01/03 06:02:07;;;;;;;2.42;0.32;;;;;;;12.21;84.03;98565.50;5014040;27;97713;-71
2024/01/03 06:04:36;;;;;;;2.65;0.50;;;;;;;12.09;84.70;98558.50;5019444;27;96981;-70
2024/01/03 06:07:02;;;;;;;5.00;0.40;;;;;;;11.93;84.86;98564.13;5025103;27;96855;-69
2024/01/03 06:09:29;;;;;;;3.72;0.40;;;;;;;11.73;86.21;98561.25;5026098;27;100828;-70
2024/01/03 06:11:55;;;;;;;3.67;0.40;;;;;;;11.81;85.98;98561.56;5015109;27;99031;-70
2024/01/03 06:14:22;;;;;;;3.67;0.55;;;;;;;11.65;86.43;98564.47;5022188;27;101095;-70
2024/01/03 06:16:48;;;;;;;1.17;0.20;;;;;;;11.82;85.37;98569.38;5018683;27;96807;-70
2024/01/03 06:19:15;;;;;;;1.42;0.28;;;;;;;11.84;84.83;98577.19;5026803;27;101567;-70
2024/01/03 06:21:43;;;;;;;5.10;0.25;;;;;;;12.11;84.32;98585.72;5025876;27;99280;-72
2024/01/03 06:24:09;;;;;;;2.17;0.47;;;;;;;12.55;82.51;98592.03;5023982;27;97174;-71
2024/01/03 06:26:36;;;;;;;3.78;0.50;;;;;;;12.52;81.43;98590.50;5022293;27;97140;-70
2024/01/03 06:29:02;;;;;;;4.88;0.60;;;;;;;12.31;82.13;98597.44;5022337;27;99808;-70
2024/01/03 06:31:29;;;;;;;3.70;0.50;;;;;;;12.27;82.47;98601.28;5026884;27;98279;-70
2024/01/03 06:33:55;;;;;;;6.60;0.60;;;;;;;12.23;82.22;98611.25;5025035;27;97932;-70
2024/01/03 06:36:22;;;;;;;13.77;0.77;;;;;;;12.07;83.09;98607.25;5026307;27;96740;-70
2024/01/03 06:38:50;;;;;;;2.40;0.50;;;;;;;12.31;82.05;98608.03;5019835;27;98958;-71
2024/01/03 06:41:17;;;;;;;4.75;0.70;;;;;;;12.53;80.71;98610.72;5022906;27;98084;-71
2024/01/03 06:43:44;;;;;;;2.42;0.40;;;;;;;12.66;80.21;98611.47;5021493;27;96807;-70
2024/01/03 06:46:11;;;;;;;3.88;0.50;;;;;;;12.61;80.33;98626.00;5026161;27;97661;-71
2024/01/03 06:48:37;;;;;;;2.20;0.35;;;;;;;12.42;81.32;98621.28;5019843;27;99407;-70
2024/01/03 06:51:04;;;;;;;2.90;0.55;;;;;;;12.34;82.38;98624.50;5023655;27;98472;-71
2024/01/03 06:53:30;;;;;;;1.35;0.30;;;;;;;12.29;83.26;98631.13;5024669;27;98345;-71
2024/01/03 06:55:58;;;;;;;3.55;0.50;;;;;;;12.46;82.96;98621.91;5025164;27;97295;-69
2024/01/03 06:58:25;;;;;;;2.25;0.50;;;;;;;12.56;82.30;98633.47;5025374;27;100752;-71
2024/01/03 07:00:53;;;;;;;2.28;0.52;;;;;;;12.72;81.71;98639.28;5021434;27;98763;-71
2024/01/03 07:03:20;;;;;;;2.25;0.55;;;;;;;12.55;82.13;98642.38;5025534;27;97295;-70
2024/01/03 07:05:46;;;;;;;4.20;0.57;;;;;;;12.71;82.09;98641.09;5025374;27;97197;-70
2024/01/03 07:08:13;;;;;;;2.20;0.60;;;;;;;12.80;81.29;98636.88;5022986;27;99145;-69
2024/01/03 07:10:41;;;;;;;5.13;0.60;;;;;;;12.61;82.08;98648.06;5024076;27;100022;-71
2024/01/03 07:13:10;;;;;;;7.55;0.75;;;;;;;12.38;83.44;98636.59;5023836;27;97788;-72
2024/01/03 07:15:36;;;;;;;2.70;0.85;;;;;;;12.58;82.63;98643.00;5030393;27;97155;-71
2024/01/03 07:18:03;;;;;;;5.68;0.60;;;;;;;12.65;81.48;98646.03;5025453;27;99116;-70
2024/01/03 07:20:30;;;;;;;4.60;0.57;;;;;;;12.47;82.84;98640.31;5016522;27;100400;-71
2024/01/03 07:22:56;;;;;;;1.48;0.52;;;;;;;12.71;80.94;98642.91;5024904;27;97417;-71
2024/01/03 07:25:26;;;;;;;3.92;0.70;;;;;;;12.60;82.37;98645.53;5028049;27;97013;-75
2024/01/03 07:27:52;;;;;;;4.70;1.00;;;;;;;12.49;82.27;98649.00;5025168;27;98761;-70
2024/01/03 07:30:23;;;;;;;4.00;0.82;;;;;;;12.51;81.53;98648.88;5024488;27;98796;-71
2024/01/03 07:32:50;;;;;;;3.97;0.80;;;;;;;12.34;82.05;98655.44;5026675;27;98113;-71
2024/01/03 07:35:16;;;;;;;5.07;1.08;;;;;;;12.23;82.14;98647.47;5027489;27;96856;-71
2024/01/03 07:37:43;;;;;;;5.63;0.93;;;;;;;12.37;81.56;98642.00;5013301;27;98903;-71
2024/01/03 07:40:10;;;;;;;4.32;0.60;;;;;;;12.38;80.94;98646.31;5017208;27;99308;-71
2024/01/03 07:42:37;;;;;;;2.65;0.55;;;;;;;12.66;80.06;98647.72;5024433;27;97259;-70
2024/01/03 07:45:03;;;;;;;3.78;0.50;;;;;;;12.40;79.60;98647.06;5027898;27;96844;-71
2024/01/03 07:47:38;;;;;;;3.95;0.70;;;;;;;12.23;80.75;98645.69;5025799;27;99341;-71
2024/01/03 07:50:05;;;;;;;4.85;0.50;;;;;;;12.43;80.01;98644.16;5021042;27;100493;-72
2024/01/03 07:52:32;;;;;;;4.45;0.82;;;;;;;12.52;79.16;98653.22;5022358;27;97355;-70
2024/01/03 07:54:59;;;;;;;2.88;0.60;;;;;;;12.53;79.02;98657.56;5026367;27;97245;-70
2024/01/03 07:57:25;;;;;;;6.50;0.90;;;;;;;12.64;77.97;98654.94;5018547;27;100863;-70
2024/01/03 07:59:54;;;;;;;3.78;0.70;;;;;;;12.42;78.88;98662.81;5020283;28;102586;-71
2024/01/03 08:02:21;;;;;;;2.50;0.50;;;;;;;12.60;78.30;98653.50;5021456;27;97427;-70
2024/01/03 08:04:49;;;;;;;5.07;1.08;;;;;;;12.73;77.08;98646.28;5026001;27;98501;-71
2024/01/03 08:07:15;;;;;;;7.40;0.68;;;;;;;12.81;77.10;98659.75;5018084;27;99415;-71
2024/01/03 08:09:41;;;;;;;2.15;0.40;;;;;;;12.90;76.01;98667.00;5026797;27;98754;-70
2024/01/03 08:12:09;;;;;;;2.83;0.30;;;;;;;12.56;77.49;98646.72;5025579;27;97273;-73
2024/01/03 08:14:35;;;;;;;4.90;0.90;;;;;;;12.57;77.02;98648.41;5024764;27;97767;-74
2024/01/03 08:17:02;;;;;;;6.72;0.80;;;;;;;12.58;77.09;98663.34;5017887;27;98635;-75
2024/01/03 08:19:28;;;;;;;2.15;0.60;;;;;;;12.41;77.61;98664.63;5023266;27;98756;-75
2024/01/03 08:21:57;;;;;;;3.63;0.55;;;;;;;12.23;78.56;98664.22;5024847;27;97182;-74
2024/01/03 08:24:24;;;;;;;4.78;0.47;;;;;;;12.41;77.57;98669.06;5025004;27;97261;-75
2024/01/03 08:26:50;;;;;;;3.05;0.65;;;;;;;12.37;78.03;98664.03;5027930;27;98925;-74
2024/01/03 08:29:17;;;;;;;4.78;0.35;;;;;;;12.57;76.65;98661.66;5026525;27;98203;-75
2024/01/03 08:31:44;;;;;;;3.58;0.70;;;;;;;12.89;75.74;98665.31;5024584;28;97629;-75
2024/01/03 08:34:10;;;;;;;3.72;0.57;;;;;;;12.90;75.22;98661.72;5026160;27;96847;-75
2024/01/03 08:36:41;;;;;;;6.55;0.60;;;;;;;13.07;74.42;98669.19;5020074;27;101168;-75
2024/01/03 08:39:09;;;;;;;2.50;0.50;;;;;;;12.98;74.89;98667.28;5019582;27;101306;-74
2024/01/03 08:41:36;;;;;;;4.15;1.25;;;;;;;13.14;73.44;98670.44;5023579;27;97354;-75
2024/01/03 08:44:05;;;;;;;6.07;0.75;;;;;;;12.75;75.08;98673.50;5024840;27;97998;-74
2024/01/03 08:46:34;;;;;;;2.40;0.55;;;;;;;12.81;75.08;98670.38;5027964;27;100400;-75
2024/01/03 08:49:03;;;;;;;1.65;0.40;;;;;;;12.95;74.60;98670.16;5026144;27;99271;-75
2024/01/03 08:51:29;;;;;;;2.83;0.50;;;;;;;12.79;74.54;98661.72;5025809;27;97564;-75
2024/01/03 08:53:56;;;;;;;4.43;0.73;;;;;;;13.02;74.32;98665.22;5026739;27;97226;-74
2024/01/03 08:56:24;;;;;;;2.80;0.50;;;;;;;13.43;72.64;98668.13;5019337;27;99435;-74
2024/01/03 08:58:51;;;;;;;3.25;0.65;;;;;;;13.36;72.11;98671.38;5028293;27;98682;-74
2024/01/03 09:01:17;;;;;;;3.80;0.60;;;;;;;13.45;72.34;98675.97;5029322;27;97084;-74
2024/01/03 09:03:44;;;;;;;4.28;1.48;;;;;;;13.50;71.93;98679.09;5016488;27;98248;-74
2024/01/03 09:06:12;;;;;;;5.10;0.73;;;;;;;13.62;71.64;98669.31;5027232;28;99286;-74
2024/01/03 09:08:39;;;;;;;4.10;0.60;;;;;;;13.41;71.73;98679.81;5023099;27;98073;-74
2024/01/03 09:11:09;;;;;;;3.33;0.50;;;;;;;12.93;73.81;98677.38;5026572;28;100001;-74
2024/01/03 09:13:38;;;;;;;3.90;0.60;;;;;;;13.28;72.82;98668.50;5022827;27;97017;-72
2024/01/03 09:16:05;;;;;;;4.03;0.60;;;;;;;13.32;72.44;98676.09;5026743;27;98972;-73
2024/01/03 09:18:32;;;;;;;4.70;0.50;;;;;;;13.42;72.41;98682.34;5030049;27;100674;-73
2024/01/03 09:20:59;;;;;;;1.98;0.40;;;;;;;13.59;71.76;98686.31;5029990;27;97085;-74
2024/01/03 09:23:25;;;;;;;2.45;0.40;;;;;;;13.05;72.86;98664.97;5020424;27;96798;-74
2024/01/03 09:25:55;;;;;;;4.00;0.50;;;;;;;13.22;72.80;98671.63;5020142;27;100667;-73
2024/01/03 09:28:21;;;;;;;3.58;0.50;;;;;;;13.36;72.76;98674.88;5025527;27;99969;-74
2024/01/03 09:30:49;;;;;;;1.63;0.40;;;;;;;13.06;72.97;98674.63;5029139;27;96690;-73
2024/01/03 09:33:16;;;;;;;2.97;0.60;;;;;;;13.17;72.77;98679.97;5027580;27;97468;-71
2024/01/03 09:35:43;;;;;;;1.60;0.50;;;;;;;13.37;72.60;98683.69;5028249;27;98854;-73
2024/01/03 09:38:09;;;;;;;5.25;0.60;;;;;;;13.38;72.68;98674.78;5029061;27;99104;-72
2024/01/03 09:40:36;;;;;;;1.85;0.60;;;;;;;13.54;71.68;98683.19;5029321;27;96753;-72
2024/01/03 09:43:03;;;;;;;5.63;0.47;;;;;;;13.29;71.91;98667.53;5028161;27;97244;-73
2024/01/03 09:45:30;;;;;;;3.45;0.70;;;;;;;13.34;72.05;98678.63;5028543;27;101260;-73
2024/01/03 09:47:59;;;;;;;2.42;0.38;;;;;;;13.20;72.17;98685.00;5026926;27;98724;-69
2024/01/03 09:50:26;;;;;;;4.05;0.77;;;;;;;13.28;72.63;98674.66;5030399;27;97390;-70
2024/01/03 09:52:56;;;;;;;3.17;0.50;;;;;;;13.30;72.17;98678.03;5029822;27;97755;-75
2024/01/03 09:55:27;;;;;;;3.47;0.40;;;;;;;13.48;71.17;98687.16;5024479;27;100775;-76
2024/01/03 09:57:55;;;;;;;2.28;0.60;;;;;;;13.69;70.65;98684.63;5029239;27;97619;-77
2024/01/03 10:00:23;;;;;;;6.90;2.45;;;;;;;13.87;69.47;98687.56;5029293;27;97348;-78
2024/01/03 10:02:50;;;;;;;3.38;0.80;;;;;;;13.44;71.15;98685.75;5029499;27;97159;-75
2024/01/03 10:05:28;;;;;;;9.75;1.60;;;;;;;13.41;71.03;98683.31;5025307;27;99018;-77
2024/01/03 10:07:55;;;;;;;4.28;0.50;;;;;;;13.72;70.88;98683.53;5028542;27;98223;-78
2024/01/03 10:10:32;;;;;;;3.03;0.40;;;;;;;13.71;70.04;98679.19;5016196;27;98730;-76
2024/01/03 10:13:13;;;;;;;2.97;0.60;;;;;;;14.06;69.17;98681.59;5025246;27;97600;-76
2024/01/03 10:15:41;;;;;;;2.58;0.75;;;;;;;14.02;68.84;98685.50;5029110;27;98830;-75
2024/01/03 10:18:08;;;;;;;6.60;0.98;;;;;;;13.89;69.73;98688.31;5021929;27;101602;-76
2024/01/03 10:20:36;;;;;;;1.40;0.50;;;;;;;13.85;69.59;98685.03;5026060;27;97439;-76
2024/01/03 10:23:07;;;;;;;3.13;0.57;;;;;;;14.05;68.51;98685.22;5024002;27;97533;-76
2024/01/03 10:25:34;;;;;;;4.28;0.50;;;;;;;13.81;69.14;98680.97;5025134;27;100826;-74
2024/01/03 10:28:01;;;;;;;4.10;0.68;;;;;;;14.06;68.40;98684.25;5014853;27;99490;-70
2024/01/03 10:30:28;;;;;;;3.70;0.60;;;;;;;14.16;68.60;98682.56;5023089;27;97498;-71
2024/01/03 10:32:59;;;;;;;6.05;0.73;;;;;;;14.27;67.71;98685.16;5024520;27;99027;-71
2024/01/03 10:35:29;;;;;;;3.42;0.50;;;;;;;13.93;68.96;98679.97;5018953;27;101502;-71
2024/01/03 10:37:59;;;;;;;2.95;0.90;;;;;;;13.77;69.67;98681.34;5018968;27;98948;-71
2024/01/03 10:40:27;;;;;;;3.05;0.52;;;;;;;13.95;68.96;98678.03;5023457;27;96942;-71
2024/01/03 10:42:53;;;;;;;3.60;0.90;;;;;;;14.15;68.42;98672.88;5024711;27;96945;-70
2024/01/03 10:45:20;;;;;;;2.75;0.60;;;;;;;14.09;68.51;98684.03;5027257;27;98781;-70
2024/01/03 10:47:47;;;;;;;2.75;0.40;;;;;;;14.11;67.97;98668.81;5023709;27;98765;-70
2024/01/03 10:50:13;;;;;;;1.08;0.40;;;;;;;13.48;70.22;98678.38;5029120;28;96859;-71
2024/01/03 10:52:42;;;;;;;4.13;0.40;;;;;;;13.44;71.52;98674.28;5027900;27;97066;-72
2024/01/03 10:55:11;;;;;;;3.95;0.65;;;;;;;13.87;70.38;98676.97;5024972;27;98985;-71
2024/01/03 10:57:44;;;;;;;5.93;1.10;;;;;;;13.89;70.13;98675.03;5023731;27;99519;-71
2024/01/03 11:00:18;;;;;;;5.43;0.77;;;;;;;14.02;69.66;98674.88;5023684;27;102398;-71
2024/01/03 11:02:54;;;;;;;1.98;0.50;;;;;;;13.85;70.03;98673.56;5022250;27;96983;-71
2024/01/03 11:05:26;;;;;;;4.65;0.73;;;;;;;13.95;69.31;98667.41;5016150;27;100863;-71
2024/01/03 11:07:57;;;;;;;0.82;0.30;;;;;;;13.93;68.82;98674.66;5024106;27;99270;-71
2024/01/03 11:10:54;;;;;;;2.10;0.40;;;;;;;14.31;68.96;98670.63;5020395;27;96868;-72
2024/01/03 11:13:31;;;;;;;4.83;0.63;;;;;;;14.63;67.50;98673.31;5024032;28;96950;-70
2024/01/03 11:15:58;;;;;;;3.28;0.40;;;;;;;14.35;67.29;98672.94;5021917;27;99027;-69
2024/01/03 11:18:51;;;;;;;2.90;0.50;;;;;;;13.91;68.99;98673.91;5022780;27;98917;-72
2024/01/03 11:21:40;;;;;;;3.67;0.40;;;;;;;13.57;70.88;98665.22;5019304;27;97831;-71
2024/01/03 11:24:46;;;;;;;2.30;0.60;;;;;;;13.54;72.07;98659.31;5021772;27;98096;-71
2024/01/03 11:27:24;;;;;;;3.80;0.40;;;;;;;13.80;70.11;98658.03;5005201;27;97233;-71
2024/01/03 11:29:53;;;;;;;2.42;0.70;;;;;;;12.92;74.22;98662.44;5025089;27;99263;-70
2024/01/03 11:32:37;;;;;;;3.67;0.68;;;;;;;12.92;75.23;98657.16;5027775;27;97113;-70
2024/01/03 11:35:06;;;;;;;4.35;0.57;;;;;;;13.34;74.31;98657.41;5024454;27;97376;-71